sensor_id;sensor_type;location;lat;lon;timestamp;temperature;humidity
13711;DHT22;6927;51.256;9.410;2023-02-10T00:01:48;-0.40;99.90
13711;DHT22;6927;51.256;9.410;2023-02-10T00:06:56;-0.50;99.90
13711;DHT22;6927;51.256;9.410;2023-02-10T00:13:05;-0.40;99.90
13711;DHT22;6927;51.256;9.410;2023-02-10T00:15:43;-0.50;99.90
13711;DHT22;6927;51.256;9.410;2023-02-10T00:18:11;-0.40;99.90
13711;DHT22;6927;51.256;9.410;2023-02-10T00:21:07;-0.40;99.90
13711;DHT22;6927;51.256;9.410;2023-02-10T00:26:48;-0.30;99.90
13711;DHT22;6927;51.256;9.410;2023-02-10T00:29:17;-0.30;99.90
13711;DHT22;6927;51.256;9.410;2023-02-10T00:31:46;-0.30;99.90
13711;DHT22;6927;51.256;9.410;2023-02-10T00:34:14;-0.20;99.90
13711;DHT22;6927;51.256;9.410;2023-02-10T00:36:43;-0.30;99.90
13711;DHT22;6927;51.256;9.410;2023-02-10T00:39:13;-0.30;99.90
13711;DHT22;6927;51.256;9.410;2023-02-10T00:41:42;-0.30;99.90
13711;DHT22;6927;51.256;9.410;2023-02-10T00:44:09;-0.30;99.90
13711;DHT22;6927;51.256;9.410;2023-02-10T00:46:38;-0.30;99.90
13711;DHT22;6927;51.256;9.410;2023-02-10T00:49:04;-0.30;99.90
13711;DHT22;6927;51.256;9.410;2023-02-10T00:51:33;-0.30;99.90
13711;DHT22;6927;51.256;9.410;2023-02-10T00:53:59;-0.30;99.90
13711;DHT22;6927;51.256;9.410;2023-02-10T00:56:24;-0.30;99.90
13711;DHT22;6927;51.256;9.410;2023-02-10T00:58:56;-0.30;99.90
13711;DHT22;6927;51.256;9.410;2023-02-10T01:01:25;-0.20;99.90
13711;DHT22;6927;51.256;9.410;2023-02-10T01:03:50;-0.30;99.90
13711;DHT22;6927;51.256;9.410;2023-02-10T01:06:19;-0.30;99.90
13711;DHT22;6927;51.256;9.410;2023-02-10T01:08:45;-0.30;99.90
13711;DHT22;6927;51.256;9.410;2023-02-10T01:11:21;-0.40;99.90
13711;DHT22;6927;51.256;9.410;2023-02-10T01:14:14;-0.40;99.90
13711;DHT22;6927;51.256;9.410;2023-02-10T01:16:52;-0.40;99.90
13711;DHT22;6927;51.256;9.410;2023-02-10T01:19:32;-0.40;99.90
13711;DHT22;6927;51.256;9.410;2023-02-10T01:21:57;-0.40;99.90
13711;DHT22;6927;51.256;9.410;2023-02-10T01:24:25;-0.50;99.90
13711;DHT22;6927;51.256;9.410;2023-02-10T01:26:51;-0.40;99.90
13711;DHT22;6927;51.256;9.410;2023-02-10T01:36:16;-0.40;99.90
13711;DHT22;6927;51.256;9.410;2023-02-10T01:38:43;-0.40;99.90
13711;DHT22;6927;51.256;9.410;2023-02-10T01:41:11;-0.40;99.90
13711;DHT22;6927;51.256;9.410;2023-02-10T01:43:57;-0.40;99.90
13711;DHT22;6927;51.256;9.410;2023-02-10T01:46:23;-0.40;99.90
13711;DHT22;6927;51.256;9.410;2023-02-10T01:48:49;-0.40;99.90
13711;DHT22;6927;51.256;9.410;2023-02-10T01:51:17;-0.40;99.90
13711;DHT22;6927;51.256;9.410;2023-02-10T01:53:44;-0.40;99.90
13711;DHT22;6927;51.256;9.410;2023-02-10T01:56:13;-0.40;99.90
13711;DHT22;6927;51.256;9.410;2023-02-10T01:58:40;-0.40;99.90
13711;DHT22;6927;51.256;9.410;2023-02-10T02:01:07;-0.40;99.90
13711;DHT22;6927;51.256;9.410;2023-02-10T02:03:32;-0.40;99.90
13711;DHT22;6927;51.256;9.410;2023-02-10T02:05:58;-0.40;99.90
13711;DHT22;6927;51.256;9.410;2023-02-10T02:08:27;-0.40;99.90
13711;DHT22;6927;51.256;9.410;2023-02-10T02:22:34;-0.20;99.90
13711;DHT22;6927;51.256;9.410;2023-02-10T02:26:01;-0.20;99.90
13711;DHT22;6927;51.256;9.410;2023-02-10T02:28:11;-0.30;99.90
13711;DHT22;6927;51.256;9.410;2023-02-10T02:36:25;-0.20;99.90
13711;DHT22;6927;51.256;9.410;2023-02-10T02:38:51;-0.20;99.90
13711;DHT22;6927;51.256;9.410;2023-02-10T02:41:26;-0.10;99.90
13711;DHT22;6927;51.256;9.410;2023-02-10T02:43:52;-0.30;99.90
13711;DHT22;6927;51.256;9.410;2023-02-10T02:46:35;-0.30;99.90
13711;DHT22;6927;51.256;9.410;2023-02-10T03:07:23;-0.20;99.90
13711;DHT22;6927;51.256;9.410;2023-02-10T03:13:19;-0.20;99.90
13711;DHT22;6927;51.256;9.410;2023-02-10T03:16:11;-0.20;99.90
13711;DHT22;6927;51.256;9.410;2023-02-10T03:18:53;-0.10;99.90
13711;DHT22;6927;51.256;9.410;2023-02-10T03:21:36;-0.10;99.90
13711;DHT22;6927;51.256;9.410;2023-02-10T03:24:02;0.00;99.90
13711;DHT22;6927;51.256;9.410;2023-02-10T03:26:31;0.00;99.90
13711;DHT22;6927;51.256;9.410;2023-02-10T03:28:59;0.00;99.90
13711;DHT22;6927;51.256;9.410;2023-02-10T03:31:25;0.00;99.90
13711;DHT22;6927;51.256;9.410;2023-02-10T03:33:53;0.00;99.90
13711;DHT22;6927;51.256;9.410;2023-02-10T03:36:19;0.00;99.90
13711;DHT22;6927;51.256;9.410;2023-02-10T03:38:47;0.00;99.90
13711;DHT22;6927;51.256;9.410;2023-02-10T03:41:14;0.00;99.90
13711;DHT22;6927;51.256;9.410;2023-02-10T03:43:42;-0.10;99.90
13711;DHT22;6927;51.256;9.410;2023-02-10T03:46:17;-0.10;99.90
13711;DHT22;6927;51.256;9.410;2023-02-10T03:48:42;-0.10;99.90
13711;DHT22;6927;51.256;9.410;2023-02-10T03:51:17;-0.20;99.90
13711;DHT22;6927;51.256;9.410;2023-02-10T03:53:43;-0.10;99.90
13711;DHT22;6927;51.256;9.410;2023-02-10T03:56:12;-0.20;99.90
13711;DHT22;6927;51.256;9.410;2023-02-10T03:58:37;-0.10;99.90
13711;DHT22;6927;51.256;9.410;2023-02-10T04:01:14;-0.20;99.90
13711;DHT22;6927;51.256;9.410;2023-02-10T04:03:44;-0.20;99.90
13711;DHT22;6927;51.256;9.410;2023-02-10T04:06:13;-0.20;99.90
13711;DHT22;6927;51.256;9.410;2023-02-10T04:08:41;-0.20;99.90
13711;DHT22;6927;51.256;9.410;2023-02-10T04:11:13;-0.10;99.90
13711;DHT22;6927;51.256;9.410;2023-02-10T04:13:47;-0.10;99.90
13711;DHT22;6927;51.256;9.410;2023-02-10T04:16:15;0.00;99.90
13711;DHT22;6927;51.256;9.410;2023-02-10T04:18:42;0.00;99.90
13711;DHT22;6927;51.256;9.410;2023-02-10T04:21:14;-0.10;99.90
13711;DHT22;6927;51.256;9.410;2023-02-10T04:23:40;-0.10;99.90
13711;DHT22;6927;51.256;9.410;2023-02-10T04:26:17;-0.10;99.90
13711;DHT22;6927;51.256;9.410;2023-02-10T04:28:43;-0.10;99.90
13711;DHT22;6927;51.256;9.410;2023-02-10T04:31:13;-0.10;99.90
13711;DHT22;6927;51.256;9.410;2023-02-10T04:33:41;-0.10;99.90
13711;DHT22;6927;51.256;9.410;2023-02-10T04:36:08;-0.10;99.90
13711;DHT22;6927;51.256;9.410;2023-02-10T04:38:36;-0.10;99.90
13711;DHT22;6927;51.256;9.410;2023-02-10T04:44:09;-0.20;99.90
13711;DHT22;6927;51.256;9.410;2023-02-10T04:46:38;-0.10;99.90
13711;DHT22;6927;51.256;9.410;2023-02-10T04:49:09;-0.10;99.90
13711;DHT22;6927;51.256;9.410;2023-02-10T04:51:34;-0.10;99.90
13711;DHT22;6927;51.256;9.410;2023-02-10T04:54:00;0.00;99.90
13711;DHT22;6927;51.256;9.410;2023-02-10T04:56:26;0.00;99.90
13711;DHT22;6927;51.256;9.410;2023-02-10T04:58:52;-0.10;99.90
13711;DHT22;6927;51.256;9.410;2023-02-10T05:01:28;-0.10;99.90
13711;DHT22;6927;51.256;9.410;2023-02-10T05:04:16;-0.10;99.90
13711;DHT22;6927;51.256;9.410;2023-02-10T05:07:10;0.00;99.90
13711;DHT22;6927;51.256;9.410;2023-02-10T06:17:13;-1.30;99.90
13711;DHT22;6927;51.256;9.410;2023-02-10T06:19:39;-1.30;99.90
13711;DHT22;6927;51.256;9.410;2023-02-10T06:22:07;-1.40;99.90
13711;DHT22;6927;51.256;9.410;2023-02-10T06:24:33;-1.40;99.90
13711;DHT22;6927;51.256;9.410;2023-02-10T06:26:59;-1.40;99.90
13711;DHT22;6927;51.256;9.410;2023-02-10T06:29:24;-1.40;99.90
13711;DHT22;6927;51.256;9.410;2023-02-10T06:31:50;-1.40;99.90
13711;DHT22;6927;51.256;9.410;2023-02-10T06:34:16;-1.40;99.90
13711;DHT22;6927;51.256;9.410;2023-02-10T06:36:41;-1.40;99.90
13711;DHT22;6927;51.256;9.410;2023-02-10T06:39:07;-1.40;99.90
13711;DHT22;6927;51.256;9.410;2023-02-10T06:41:33;-1.50;99.90
13711;DHT22;6927;51.256;9.410;2023-02-10T06:43:58;-1.50;99.90
13711;DHT22;6927;51.256;9.410;2023-02-10T06:46:24;-1.40;99.90
13711;DHT22;6927;51.256;9.410;2023-02-10T06:48:50;-1.40;99.90
13711;DHT22;6927;51.256;9.410;2023-02-10T06:51:19;-1.50;99.90
13711;DHT22;6927;51.256;9.410;2023-02-10T06:53:45;-1.50;99.90
13711;DHT22;6927;51.256;9.410;2023-02-10T06:56:12;-1.50;99.90
13711;DHT22;6927;51.256;9.410;2023-02-10T06:58:38;-1.50;99.90
13711;DHT22;6927;51.256;9.410;2023-02-10T07:01:12;-1.40;99.90
13711;DHT22;6927;51.256;9.410;2023-02-10T07:03:40;-1.40;99.90
13711;DHT22;6927;51.256;9.410;2023-02-10T07:06:06;-1.40;99.90
13711;DHT22;6927;51.256;9.410;2023-02-10T07:08:31;-1.40;99.90
13711;DHT22;6927;51.256;9.410;2023-02-10T07:21:23;-1.30;99.90
13711;DHT22;6927;51.256;9.410;2023-02-10T07:42:05;-0.90;99.90
13711;DHT22;6927;51.256;9.410;2023-02-10T07:47:28;-0.70;99.90
13711;DHT22;6927;51.256;9.410;2023-02-10T07:50:03;-0.60;99.90
13711;DHT22;6927;51.256;9.410;2023-02-10T07:52:32;-0.60;99.90
13711;DHT22;6927;51.256;9.410;2023-02-10T07:54:57;-0.50;99.90
13711;DHT22;6927;51.256;9.410;2023-02-10T07:57:24;-0.40;99.90
13711;DHT22;6927;51.256;9.410;2023-02-10T07:59:50;-0.40;99.90
13711;DHT22;6927;51.256;9.410;2023-02-10T08:02:16;-0.30;99.90
13711;DHT22;6927;51.256;9.410;2023-02-10T08:04:41;-0.20;99.90
13711;DHT22;6927;51.256;9.410;2023-02-10T08:07:07;0.10;99.90
13711;DHT22;6927;51.256;9.410;2023-02-10T08:09:33;0.20;99.90
13711;DHT22;6927;51.256;9.410;2023-02-10T08:11:58;0.30;99.90
13711;DHT22;6927;51.256;9.410;2023-02-10T08:14:24;0.50;99.90
13711;DHT22;6927;51.256;9.410;2023-02-10T08:16:50;0.70;99.90
13711;DHT22;6927;51.256;9.410;2023-02-10T08:19:15;0.80;99.90
13711;DHT22;6927;51.256;9.410;2023-02-10T08:21:41;0.90;99.90
13711;DHT22;6927;51.256;9.410;2023-02-10T08:24:07;1.20;99.90
13711;DHT22;6927;51.256;9.410;2023-02-10T08:26:33;1.40;99.90
13711;DHT22;6927;51.256;9.410;2023-02-10T08:28:59;1.80;99.90
13711;DHT22;6927;51.256;9.410;2023-02-10T08:31:25;2.10;99.90
13711;DHT22;6927;51.256;9.410;2023-02-10T08:33:51;2.30;99.90
13711;DHT22;6927;51.256;9.410;2023-02-10T08:36:18;2.40;99.90
13711;DHT22;6927;51.256;9.410;2023-02-10T08:38:45;2.50;99.90
13711;DHT22;6927;51.256;9.410;2023-02-10T08:41:11;2.60;99.90
13711;DHT22;6927;51.256;9.410;2023-02-10T08:43:36;2.50;99.90
13711;DHT22;6927;51.256;9.410;2023-02-10T08:46:02;2.60;99.90
13711;DHT22;6927;51.256;9.410;2023-02-10T08:48:29;2.80;99.90
13711;DHT22;6927;51.256;9.410;2023-02-10T08:50:56;3.20;99.90
13711;DHT22;6927;51.256;9.410;2023-02-10T08:53:21;3.10;99.90
13711;DHT22;6927;51.256;9.410;2023-02-10T08:55:57;2.90;99.90
13711;DHT22;6927;51.256;9.410;2023-02-10T08:58:24;2.60;99.90
13711;DHT22;6927;51.256;9.410;2023-02-10T09:00:49;2.50;99.90
13711;DHT22;6927;51.256;9.410;2023-02-10T09:03:15;2.50;99.90
13711;DHT22;6927;51.256;9.410;2023-02-10T09:05:41;2.80;99.90
13711;DHT22;6927;51.256;9.410;2023-02-10T09:08:09;3.00;99.90
13711;DHT22;6927;51.256;9.410;2023-02-10T09:10:35;3.30;99.90
13711;DHT22;6927;51.256;9.410;2023-02-10T09:13:00;3.20;99.90
13711;DHT22;6927;51.256;9.410;2023-02-10T09:15:26;3.00;99.90
13711;DHT22;6927;51.256;9.410;2023-02-10T09:17:52;2.80;99.90
13711;DHT22;6927;51.256;9.410;2023-02-10T09:20:17;2.70;99.90
13711;DHT22;6927;51.256;9.410;2023-02-10T09:22:43;3.10;99.90
13711;DHT22;6927;51.256;9.410;2023-02-10T09:25:09;3.40;99.90
13711;DHT22;6927;51.256;9.410;2023-02-10T09:27:34;3.70;99.90
13711;DHT22;6927;51.256;9.410;2023-02-10T09:30:00;4.10;99.90
13711;DHT22;6927;51.256;9.410;2023-02-10T09:32:26;4.20;99.90
13711;DHT22;6927;51.256;9.410;2023-02-10T09:34:51;4.40;99.90
13711;DHT22;6927;51.256;9.410;2023-02-10T09:37:17;4.50;99.90
13711;DHT22;6927;51.256;9.410;2023-02-10T09:39:43;4.50;99.90
13711;DHT22;6927;51.256;9.410;2023-02-10T09:44:52;4.20;99.90
13711;DHT22;6927;51.256;9.410;2023-02-10T09:47:35;4.10;99.90
13711;DHT22;6927;51.256;9.410;2023-02-10T09:50:24;4.10;99.90
13711;DHT22;6927;51.256;9.410;2023-02-10T09:53:16;4.00;99.90
13711;DHT22;6927;51.256;9.410;2023-02-10T09:56:00;3.80;99.90
13711;DHT22;6927;51.256;9.410;2023-02-10T09:58:35;4.30;99.90
13711;DHT22;6927;51.256;9.410;2023-02-10T10:01:10;4.40;99.90
13711;DHT22;6927;51.256;9.410;2023-02-10T10:03:45;4.60;99.90
13711;DHT22;6927;51.256;9.410;2023-02-10T10:06:14;4.50;99.90
13711;DHT22;6927;51.256;9.410;2023-02-10T10:09:01;4.10;99.90
13711;DHT22;6927;51.256;9.410;2023-02-10T10:11:51;4.00;99.90
13711;DHT22;6927;51.256;9.410;2023-02-10T10:14:23;4.00;99.90
13711;DHT22;6927;51.256;9.410;2023-02-10T10:26:05;4.20;99.90
13711;DHT22;6927;51.256;9.410;2023-02-10T10:31:16;3.90;99.90
13711;DHT22;6927;51.256;9.410;2023-02-10T10:39:28;4.50;99.90
13711;DHT22;6927;51.256;9.410;2023-02-10T10:42:01;4.70;99.90
13711;DHT22;6927;51.256;9.410;2023-02-10T10:44:30;4.90;99.90
13711;DHT22;6927;51.256;9.410;2023-02-10T10:47:18;5.00;99.90
13711;DHT22;6927;51.256;9.410;2023-02-10T10:49:44;5.00;99.90
13711;DHT22;6927;51.256;9.410;2023-02-10T10:52:36;5.20;99.90
13711;DHT22;6927;51.256;9.410;2023-02-10T10:55:12;5.00;99.90
13711;DHT22;6927;51.256;9.410;2023-02-10T10:57:42;4.70;99.90
13711;DHT22;6927;51.256;9.410;2023-02-10T11:00:21;4.50;99.90
13711;DHT22;6927;51.256;9.410;2023-02-10T11:02:59;4.70;99.90
13711;DHT22;6927;51.256;9.410;2023-02-10T11:05:28;5.40;99.90
13711;DHT22;6927;51.256;9.410;2023-02-10T11:07:55;5.80;99.90
13711;DHT22;6927;51.256;9.410;2023-02-10T11:10:48;5.90;99.90
13711;DHT22;6927;51.256;9.410;2023-02-10T11:13:23;5.80;99.90
13711;DHT22;6927;51.256;9.410;2023-02-10T11:15:59;5.70;99.90
13711;DHT22;6927;51.256;9.410;2023-02-10T11:18:26;5.70;99.90
13711;DHT22;6927;51.256;9.410;2023-02-10T11:20:55;5.70;99.90
13711;DHT22;6927;51.256;9.410;2023-02-10T11:23:25;5.90;99.90
13711;DHT22;6927;51.256;9.410;2023-02-10T11:26:06;5.90;99.90
13711;DHT22;6927;51.256;9.410;2023-02-10T11:28:33;5.70;99.90
13711;DHT22;6927;51.256;9.410;2023-02-10T11:31:06;5.00;99.90
13711;DHT22;6927;51.256;9.410;2023-02-10T11:33:39;5.10;99.90
13711;DHT22;6927;51.256;9.410;2023-02-10T11:36:12;5.00;99.90
13711;DHT22;6927;51.256;9.410;2023-02-10T11:38:40;5.20;99.90
13711;DHT22;6927;51.256;9.410;2023-02-10T11:41:13;5.60;99.90
13711;DHT22;6927;51.256;9.410;2023-02-10T11:43:45;6.30;99.90
13711;DHT22;6927;51.256;9.410;2023-02-10T11:46:24;6.50;99.90
13711;DHT22;6927;51.256;9.410;2023-02-10T11:49:00;6.30;99.90
13711;DHT22;6927;51.256;9.410;2023-02-10T11:51:29;6.10;99.90
13711;DHT22;6927;51.256;9.410;2023-02-10T11:53:58;5.70;99.90
13711;DHT22;6927;51.256;9.410;2023-02-10T12:06:05;6.20;99.90
13711;DHT22;6927;51.256;9.410;2023-02-10T12:11:24;5.50;99.90
13711;DHT22;6927;51.256;9.410;2023-02-10T12:20:20;6.50;99.90
13711;DHT22;6927;51.256;9.410;2023-02-10T12:25:37;6.90;99.90
13711;DHT22;6927;51.256;9.410;2023-02-10T12:44:43;6.50;99.90
13711;DHT22;6927;51.256;9.410;2023-02-10T12:50:28;7.50;99.90
13711;DHT22;6927;51.256;9.410;2023-02-10T12:53:14;7.50;99.90
13711;DHT22;6927;51.256;9.410;2023-02-10T12:55:54;7.90;99.90
13711;DHT22;6927;51.256;9.410;2023-02-10T12:58:32;8.40;99.90
13711;DHT22;6927;51.256;9.410;2023-02-10T13:01:34;7.60;99.90
13711;DHT22;6927;51.256;9.410;2023-02-10T13:07:00;7.70;99.90
13711;DHT22;6927;51.256;9.410;2023-02-10T13:09:39;7.60;99.90
13711;DHT22;6927;51.256;9.410;2023-02-10T13:14:31;6.80;99.90
13711;DHT22;6927;51.256;9.410;2023-02-10T13:16:59;6.50;99.90
13711;DHT22;6927;51.256;9.410;2023-02-10T13:27:42;6.50;99.90
13711;DHT22;6927;51.256;9.410;2023-02-10T13:35:44;6.50;99.90
13711;DHT22;6927;51.256;9.410;2023-02-10T13:38:17;6.60;99.90
13711;DHT22;6927;51.256;9.410;2023-02-10T13:40:51;6.70;99.90
13711;DHT22;6927;51.256;9.410;2023-02-10T13:43:27;6.40;99.90
13711;DHT22;6927;51.256;9.410;2023-02-10T13:45:55;6.20;99.90
13711;DHT22;6927;51.256;9.410;2023-02-10T13:48:28;5.80;99.90
13711;DHT22;6927;51.256;9.410;2023-02-10T13:51:05;5.70;99.90
13711;DHT22;6927;51.256;9.410;2023-02-10T14:01:37;5.90;99.90
13711;DHT22;6927;51.256;9.410;2023-02-10T14:06:51;5.70;99.90
13711;DHT22;6927;51.256;9.410;2023-02-10T14:11:56;5.80;99.90
13711;DHT22;6927;51.256;9.410;2023-02-10T14:14:36;6.10;99.90
13711;DHT22;6927;51.256;9.410;2023-02-10T14:17:07;6.20;99.90
13711;DHT22;6927;51.256;9.410;2023-02-10T14:19:35;6.10;99.90
13711;DHT22;6927;51.256;9.410;2023-02-10T14:22:02;6.20;99.90
13711;DHT22;6927;51.256;9.410;2023-02-10T14:24:35;6.10;99.90
13711;DHT22;6927;51.256;9.410;2023-02-10T14:27:12;5.90;99.90
13711;DHT22;6927;51.256;9.410;2023-02-10T14:29:44;6.00;99.90
13711;DHT22;6927;51.256;9.410;2023-02-10T14:32:13;5.80;99.90
13711;DHT22;6927;51.256;9.410;2023-02-10T14:34:40;5.80;99.90
13711;DHT22;6927;51.256;9.410;2023-02-10T14:37:17;5.90;99.90
13711;DHT22;6927;51.256;9.410;2023-02-10T14:39:55;5.90;99.90
13711;DHT22;6927;51.256;9.410;2023-02-10T14:42:22;5.80;99.90
13711;DHT22;6927;51.256;9.410;2023-02-10T14:44:55;5.70;99.90
13711;DHT22;6927;51.256;9.410;2023-02-10T14:47:29;5.50;99.90
13711;DHT22;6927;51.256;9.410;2023-02-10T14:49:56;5.70;99.90
13711;DHT22;6927;51.256;9.410;2023-02-10T14:54:47;5.80;99.90
13711;DHT22;6927;51.256;9.410;2023-02-10T14:57:16;5.80;99.90
13711;DHT22;6927;51.256;9.410;2023-02-10T14:59:43;5.40;99.90
13711;DHT22;6927;51.256;9.410;2023-02-10T15:02:25;5.10;99.90
13711;DHT22;6927;51.256;9.410;2023-02-10T15:04:54;5.00;99.90
13711;DHT22;6927;51.256;9.410;2023-02-10T15:07:27;5.00;99.90
13711;DHT22;6927;51.256;9.410;2023-02-10T15:09:54;5.00;99.90
13711;DHT22;6927;51.256;9.410;2023-02-10T15:12:22;4.80;99.90
13711;DHT22;6927;51.256;9.410;2023-02-10T15:17:23;4.50;99.90
13711;DHT22;6927;51.256;9.410;2023-02-10T15:19:59;4.40;99.90
13711;DHT22;6927;51.256;9.410;2023-02-10T15:22:37;4.30;99.90
13711;DHT22;6927;51.256;9.410;2023-02-10T15:33:30;4.20;99.90
13711;DHT22;6927;51.256;9.410;2023-02-10T15:46:44;4.30;99.90
13711;DHT22;6927;51.256;9.410;2023-02-10T15:49:13;4.40;99.90
13711;DHT22;6927;51.256;9.410;2023-02-10T15:51:42;4.20;99.90
13711;DHT22;6927;51.256;9.410;2023-02-10T15:54:13;4.10;99.90
13711;DHT22;6927;51.256;9.410;2023-02-10T15:56:40;4.00;99.90
13711;DHT22;6927;51.256;9.410;2023-02-10T15:59:14;3.90;99.90
13711;DHT22;6927;51.256;9.410;2023-02-10T16:01:40;3.90;99.90
13711;DHT22;6927;51.256;9.410;2023-02-10T16:04:08;3.80;99.90
13711;DHT22;6927;51.256;9.410;2023-02-10T16:06:35;3.80;99.90
13711;DHT22;6927;51.256;9.410;2023-02-10T16:09:02;3.60;99.90
13711;DHT22;6927;51.256;9.410;2023-02-10T16:11:31;3.50;99.90
13711;DHT22;6927;51.256;9.410;2023-02-10T16:23:35;3.00;99.90
13711;DHT22;6927;51.256;9.410;2023-02-10T16:33:31;2.70;99.90
13711;DHT22;6927;51.256;9.410;2023-02-10T16:39:24;2.50;99.90
13711;DHT22;6927;51.256;9.410;2023-02-10T16:41:51;2.50;99.90
13711;DHT22;6927;51.256;9.410;2023-02-10T16:44:18;2.40;99.90
13711;DHT22;6927;51.256;9.410;2023-02-10T16:46:45;2.30;99.90
13711;DHT22;6927;51.256;9.410;2023-02-10T16:49:14;2.20;99.90
13711;DHT22;6927;51.256;9.410;2023-02-10T16:51:40;2.10;99.90
13711;DHT22;6927;51.256;9.410;2023-02-10T16:54:09;2.10;99.90
13711;DHT22;6927;51.256;9.410;2023-02-10T16:56:39;2.00;99.90
13711;DHT22;6927;51.256;9.410;2023-02-10T16:59:05;2.00;99.90
13711;DHT22;6927;51.256;9.410;2023-02-10T17:01:31;2.00;99.90
13711;DHT22;6927;51.256;9.410;2023-02-10T17:03:57;2.00;99.90
13711;DHT22;6927;51.256;9.410;2023-02-10T17:06:23;2.00;99.90
13711;DHT22;6927;51.256;9.410;2023-02-10T17:08:50;2.00;99.90
13711;DHT22;6927;51.256;9.410;2023-02-10T17:11:16;2.00;99.90
13711;DHT22;6927;51.256;9.410;2023-02-10T17:13:41;2.00;99.90
13711;DHT22;6927;51.256;9.410;2023-02-10T17:16:33;2.00;99.90
13711;DHT22;6927;51.256;9.410;2023-02-10T17:19:03;2.00;99.90
13711;DHT22;6927;51.256;9.410;2023-02-10T17:21:30;2.00;99.90
13711;DHT22;6927;51.256;9.410;2023-02-10T17:23:55;1.90;99.90
13711;DHT22;6927;51.256;9.410;2023-02-10T17:26:21;1.80;99.90
13711;DHT22;6927;51.256;9.410;2023-02-10T17:28:46;1.80;99.90
13711;DHT22;6927;51.256;9.410;2023-02-10T17:31:17;1.80;99.90
13711;DHT22;6927;51.256;9.410;2023-02-10T17:33:43;1.70;99.90
13711;DHT22;6927;51.256;9.410;2023-02-10T17:36:17;1.60;99.90
13711;DHT22;6927;51.256;9.410;2023-02-10T17:38:44;1.60;99.90
13711;DHT22;6927;51.256;9.410;2023-02-10T17:41:12;1.60;99.90
13711;DHT22;6927;51.256;9.410;2023-02-10T17:43:38;1.60;99.90
13711;DHT22;6927;51.256;9.410;2023-02-10T17:46:04;1.60;99.90
13711;DHT22;6927;51.256;9.410;2023-02-10T17:48:29;1.60;99.90
13711;DHT22;6927;51.256;9.410;2023-02-10T17:51:16;1.60;99.90
13711;DHT22;6927;51.256;9.410;2023-02-10T17:53:44;1.50;99.90
13711;DHT22;6927;51.256;9.410;2023-02-10T17:56:10;1.50;99.90
13711;DHT22;6927;51.256;9.410;2023-02-10T17:58:36;1.50;99.90
13711;DHT22;6927;51.256;9.410;2023-02-10T18:01:02;1.50;99.90
13711;DHT22;6927;51.256;9.410;2023-02-10T18:03:33;1.50;99.90
13711;DHT22;6927;51.256;9.410;2023-02-10T18:05:59;1.50;99.90
13711;DHT22;6927;51.256;9.410;2023-02-10T18:08:27;1.50;99.90
13711;DHT22;6927;51.256;9.410;2023-02-10T18:10:52;1.50;99.90
13711;DHT22;6927;51.256;9.410;2023-02-10T18:13:18;1.50;99.90
13711;DHT22;6927;51.256;9.410;2023-02-10T18:15:45;1.40;99.90
13711;DHT22;6927;51.256;9.410;2023-02-10T18:18:11;1.40;99.90
13711;DHT22;6927;51.256;9.410;2023-02-10T18:20:37;1.40;99.90
13711;DHT22;6927;51.256;9.410;2023-02-10T18:23:05;1.40;99.90
13711;DHT22;6927;51.256;9.410;2023-02-10T18:25:31;1.40;99.90
13711;DHT22;6927;51.256;9.410;2023-02-10T18:27:57;1.30;99.90
13711;DHT22;6927;51.256;9.410;2023-02-10T18:30:26;1.30;99.90
13711;DHT22;6927;51.256;9.410;2023-02-10T18:33:00;1.20;99.90
13711;DHT22;6927;51.256;9.410;2023-02-10T18:35:25;1.20;99.90
13711;DHT22;6927;51.256;9.410;2023-02-10T18:37:52;1.20;99.90
13711;DHT22;6927;51.256;9.410;2023-02-10T18:40:18;1.20;99.90
13711;DHT22;6927;51.256;9.410;2023-02-10T18:42:43;1.20;99.90
13711;DHT22;6927;51.256;9.410;2023-02-10T18:45:09;1.10;99.90
13711;DHT22;6927;51.256;9.410;2023-02-10T18:47:38;1.10;99.90
13711;DHT22;6927;51.256;9.410;2023-02-10T18:50:03;1.00;99.90
13711;DHT22;6927;51.256;9.410;2023-02-10T18:52:30;1.10;99.90
13711;DHT22;6927;51.256;9.410;2023-02-10T18:54:56;1.10;99.90
13711;DHT22;6927;51.256;9.410;2023-02-10T18:57:21;1.00;99.90
13711;DHT22;6927;51.256;9.410;2023-02-10T18:59:49;1.00;99.90
13711;DHT22;6927;51.256;9.410;2023-02-10T19:02:15;1.00;99.90
13711;DHT22;6927;51.256;9.410;2023-02-10T19:04:41;1.00;99.90
13711;DHT22;6927;51.256;9.410;2023-02-10T19:07:06;1.00;99.90
13711;DHT22;6927;51.256;9.410;2023-02-10T19:09:32;0.90;99.90
13711;DHT22;6927;51.256;9.410;2023-02-10T19:11:58;0.90;99.90
13711;DHT22;6927;51.256;9.410;2023-02-10T19:14:24;0.90;99.90
13711;DHT22;6927;51.256;9.410;2023-02-10T19:16:49;0.90;99.90
13711;DHT22;6927;51.256;9.410;2023-02-10T19:19:15;0.90;99.90
13711;DHT22;6927;51.256;9.410;2023-02-10T19:21:40;0.90;99.90
13711;DHT22;6927;51.256;9.410;2023-02-10T19:24:10;0.90;99.90
13711;DHT22;6927;51.256;9.410;2023-02-10T19:26:37;0.90;99.90
13711;DHT22;6927;51.256;9.410;2023-02-10T19:29:03;0.80;99.90
13711;DHT22;6927;51.256;9.410;2023-02-10T19:31:32;0.80;99.90
13711;DHT22;6927;51.256;9.410;2023-02-10T19:33:58;0.80;99.90
13711;DHT22;6927;51.256;9.410;2023-02-10T19:36:24;0.70;99.90
13711;DHT22;6927;51.256;9.410;2023-02-10T19:38:50;0.60;99.90
13711;DHT22;6927;51.256;9.410;2023-02-10T19:41:23;0.60;99.90
13711;DHT22;6927;51.256;9.410;2023-02-10T19:43:53;0.50;99.90
13711;DHT22;6927;51.256;9.410;2023-02-10T19:46:20;0.50;99.90
13711;DHT22;6927;51.256;9.410;2023-02-10T19:48:46;0.50;99.90
13711;DHT22;6927;51.256;9.410;2023-02-10T19:51:16;0.40;99.90
13711;DHT22;6927;51.256;9.410;2023-02-10T19:53:45;0.40;99.90
13711;DHT22;6927;51.256;9.410;2023-02-10T19:56:11;0.50;99.90
13711;DHT22;6927;51.256;9.410;2023-02-10T19:58:40;0.50;99.90
13711;DHT22;6927;51.256;9.410;2023-02-10T20:01:11;0.60;99.90
13711;DHT22;6927;51.256;9.410;2023-02-10T20:03:44;0.60;99.90
13711;DHT22;6927;51.256;9.410;2023-02-10T20:06:14;0.50;99.90
13711;DHT22;6927;51.256;9.410;2023-02-10T20:08:39;0.70;99.90
13711;DHT22;6927;51.256;9.410;2023-02-10T20:11:05;0.70;99.90
13711;DHT22;6927;51.256;9.410;2023-02-10T20:13:31;0.70;99.90
13711;DHT22;6927;51.256;9.410;2023-02-10T20:16:00;0.70;99.90
13711;DHT22;6927;51.256;9.410;2023-02-10T20:18:25;0.80;99.90
13711;DHT22;6927;51.256;9.410;2023-02-10T20:20:55;0.90;99.90
13711;DHT22;6927;51.256;9.410;2023-02-10T20:23:25;1.00;99.90
13711;DHT22;6927;51.256;9.410;2023-02-10T20:25:51;1.10;99.90
13711;DHT22;6927;51.256;9.410;2023-02-10T20:28:17;1.20;99.90
13711;DHT22;6927;51.256;9.410;2023-02-10T20:30:43;1.20;99.90
13711;DHT22;6927;51.256;9.410;2023-02-10T20:33:09;1.30;99.90
13711;DHT22;6927;51.256;9.410;2023-02-10T20:35:36;1.30;99.90
13711;DHT22;6927;51.256;9.410;2023-02-10T20:38:02;1.40;99.90
13711;DHT22;6927;51.256;9.410;2023-02-10T20:40:28;1.40;99.90
13711;DHT22;6927;51.256;9.410;2023-02-10T20:42:54;1.50;99.90
13711;DHT22;6927;51.256;9.410;2023-02-10T20:45:20;1.50;99.90
13711;DHT22;6927;51.256;9.410;2023-02-10T20:47:45;1.50;99.90
13711;DHT22;6927;51.256;9.410;2023-02-10T20:50:11;1.50;99.90
13711;DHT22;6927;51.256;9.410;2023-02-10T20:52:38;1.50;99.90
13711;DHT22;6927;51.256;9.410;2023-02-10T20:55:07;1.50;99.90
13711;DHT22;6927;51.256;9.410;2023-02-10T20:57:32;1.50;99.90
13711;DHT22;6927;51.256;9.410;2023-02-10T20:59:58;1.50;99.90
13711;DHT22;6927;51.256;9.410;2023-02-10T21:02:24;1.50;99.90
13711;DHT22;6927;51.256;9.410;2023-02-10T21:04:49;1.50;99.90
13711;DHT22;6927;51.256;9.410;2023-02-10T21:07:16;1.60;99.90
13711;DHT22;6927;51.256;9.410;2023-02-10T21:09:41;1.60;99.90